Grantley Adams, Barbados

6:28 PM AST on August 30, 2015 (GMT -0400)
Hopefield Plantation | | Change Station
CLOSE
Current Station
Personal Weather Station
Location: Saint Philip, SAINT PHILIP
Elevation: 236 ft
Nearby Weather Stations

Elev 236 ft 13.09 °N, 59.49 °W | Updated 7 seconds ago

Mostly Cloudy
Mostly Cloudy
80.6 °F
Feels Like 89 °F
N
4.9
Wind Variable Wind from NNE
Gusts 7.4 mph

Today
High -- | Low -- °F
--% Chance of Precip.
Yesterday
High -- | Low -- °F
Precip. -- in
5:46 AM 6:10 PM
Full, 98% visible
Pressure 29.95 in
Visibility 6.2 miles
Clouds Few 1200 ft
Mostly Cloudy 28000 ft
Heat Index 89 °F
Dew Point 80 °F
Humidity 97%
Rainfall 0.17 in
Snow Depth Not available.
UV 0.0 out of 12
Pollen Not available.
Air Quality Not available.
Flu Activity Not available.
METAR TBPB 302200Z 04010KT 9999 FEW012CB BKN280 27/25 Q1014 NOSIG
Pressure 29.95 in
Visibility 6.2 miles
Clouds Few 1200 ft
Mostly Cloudy 28000 ft
Heat Index 89 °F
Dew Point 80 °F
Humidity 97%
Rainfall 0.17 in
Snow Depth Not available.
UV 0.0 out of 12
Pollen Not available.
Air Quality Not available.
Flu Activity Not available.
METAR TBPB 302200Z 04010KT 9999 FEW012CB BKN280 27/25 Q1014 NOSIG

10-Day Weather Forecast

×

Almanac

Astronomy

Aug. 30, 2015 Rise Set
Actual Time
Civil Twilight
Nautical Twilight
Astronomical Twilight
Moon
Length of Visible Light
Length of Day
Tomorrow will be .
, % of the Moon is Illuminated

Today's Extremes

Country Highs Country Lows

Community

WunderPhotos

Upload Photos

1,851,067 photos uploaded!

WunderBlogs® & News

Nearby

Air Quality

  Air Quality AQ Index Pollutant
Not available.

Snow Depth

Station Depth Elevation

Earthquake Activity

City Distance Mag. Time & Date
Minimum magnitude displayed is 2.5.

Coastal Water Temperatures

Place Temperature

Stations

Nearby Weather Stations

Station Location Temp. Windchill Dew Point Humidity Wind Precip. Elev Updated Type